sensor_id;sensor_type;location;lat;lon;timestamp;pressure;altitude;pressure_sealevel;temperature;humidity
84673;BME280;74899;42.256;23.284;2024-02-16T00:01:18;88987.47;;;-3.41;82.14
84673;BME280;74899;42.256;23.284;2024-02-16T00:03:43;88989.13;;;-3.33;81.84
84673;BME280;74899;42.256;23.284;2024-02-16T00:06:09;88990.25;;;-3.36;81.51
84673;BME280;74899;42.256;23.284;2024-02-16T00:08:34;88990.25;;;-3.36;82.01
84673;BME280;74899;42.256;23.284;2024-02-16T00:11:04;88998.41;;;-3.34;81.90
84673;BME280;74899;42.256;23.284;2024-02-16T00:13:29;88995.28;;;-3.36;81.13
84673;BME280;74899;42.256;23.284;2024-02-16T00:15:55;89000.84;;;-3.40;81.86
84673;BME280;74899;42.256;23.284;2024-02-16T00:18:20;88984.31;;;-3.43;81.10
84673;BME280;74899;42.256;23.284;2024-02-16T00:20:46;88944.81;;;-3.80;80.90
84673;BME280;74899;42.256;23.284;2024-02-16T00:23:11;88992.84;;;-3.59;81.98
84673;BME280;74899;42.256;23.284;2024-02-16T00:25:37;88947.59;;;-3.90;81.50
84673;BME280;74899;42.256;23.284;2024-02-16T00:28:03;88997.88;;;-3.59;81.30
84673;BME280;74899;42.256;23.284;2024-02-16T00:30:29;88956.41;;;-3.86;81.82
84673;BME280;74899;42.256;23.284;2024-02-16T00:32:54;88984.28;;;-3.73;81.70
84673;BME280;74899;42.256;23.284;2024-02-16T00:35:20;88934.97;;;-4.05;82.41
84673;BME280;74899;42.256;23.284;2024-02-16T00:37:45;88950.78;;;-3.96;82.16
84673;BME280;74899;42.256;23.284;2024-02-16T00:40:11;88983.47;;;-3.88;83.10
84673;BME280;74899;42.256;23.284;2024-02-16T00:42:37;88991.44;;;-4.22;85.07
84673;BME280;74899;42.256;23.284;2024-02-16T00:45:03;88993.50;;;-4.03;84.97
84673;BME280;74899;42.256;23.284;2024-02-16T00:47:29;88986.00;;;-3.88;83.89
84673;BME280;74899;42.256;23.284;2024-02-16T00:49:55;88983.28;;;-3.87;83.15
84673;BME280;74899;42.256;23.284;2024-02-16T00:52:21;88971.50;;;-3.86;82.64
84673;BME280;74899;42.256;23.284;2024-02-16T00:54:48;88986.72;;;-3.79;82.44
84673;BME280;74899;42.256;23.284;2024-02-16T00:57:13;88996.34;;;-3.83;82.12
84673;BME280;74899;42.256;23.284;2024-02-16T00:59:40;88981.13;;;-3.90;81.90
84673;BME280;74899;42.256;23.284;2024-02-16T01:02:06;88984.06;;;-4.24;82.63
84673;BME280;74899;42.256;23.284;2024-02-16T01:04:32;88959.81;;;-4.25;81.50
84673;BME280;74899;42.256;23.284;2024-02-16T01:06:58;89001.56;;;-4.07;81.43
84673;BME280;74899;42.256;23.284;2024-02-16T01:09:24;88950.31;;;-4.61;82.66
84673;BME280;74899;42.256;23.284;2024-02-16T01:11:49;88994.13;;;-4.24;82.42
84673;BME280;74899;42.256;23.284;2024-02-16T01:14:15;88995.47;;;-4.13;81.72
84673;BME280;74899;42.256;23.284;2024-02-16T01:16:40;88996.91;;;-4.19;82.57
84673;BME280;74899;42.256;23.284;2024-02-16T01:19:06;88994.56;;;-4.43;83.15
84673;BME280;74899;42.256;23.284;2024-02-16T01:21:33;88993.13;;;-4.69;84.93
84673;BME280;74899;42.256;23.284;2024-02-16T01:23:58;88994.53;;;-4.35;84.52
84673;BME280;74899;42.256;23.284;2024-02-16T01:26:26;88987.47;;;-4.17;83.05
84673;BME280;74899;42.256;23.284;2024-02-16T01:28:52;88960.16;;;-4.28;82.66
84673;BME280;74899;42.256;23.284;2024-02-16T01:31:17;88935.13;;;-4.44;81.97
84673;BME280;74899;42.256;23.284;2024-02-16T01:33:43;88971.47;;;-4.24;82.34
84673;BME280;74899;42.256;23.284;2024-02-16T01:36:08;88982.53;;;-4.33;83.23
84673;BME280;74899;42.256;23.284;2024-02-16T01:38:34;88975.66;;;-4.39;82.85
84673;BME280;74899;42.256;23.284;2024-02-16T01:41:00;88977.44;;;-4.48;83.07
84673;BME280;74899;42.256;23.284;2024-02-16T01:43:27;88975.31;;;-4.36;82.00
84673;BME280;74899;42.256;23.284;2024-02-16T01:45:53;88937.69;;;-4.52;82.01
84673;BME280;74899;42.256;23.284;2024-02-16T01:48:19;88973.94;;;-4.39;81.83
84673;BME280;74899;42.256;23.284;2024-02-16T01:50:45;88933.44;;;-4.75;82.62
84673;BME280;74899;42.256;23.284;2024-02-16T01:53:14;88964.09;;;-4.48;82.75
84673;BME280;74899;42.256;23.284;2024-02-16T01:55:45;88974.00;;;-4.47;83.00
84673;BME280;74899;42.256;23.284;2024-02-16T01:58:11;88945.44;;;-4.85;83.55
84673;BME280;74899;42.256;23.284;2024-02-16T02:00:37;88977.16;;;-4.76;84.47
84673;BME280;74899;42.256;23.284;2024-02-16T02:03:03;88979.06;;;-4.55;84.67
84673;BME280;74899;42.256;23.284;2024-02-16T02:05:28;88981.22;;;-4.44;83.53
84673;BME280;74899;42.256;23.284;2024-02-16T02:07:54;88939.41;;;-4.76;82.53
84673;BME280;74899;42.256;23.284;2024-02-16T02:10:20;88980.13;;;-4.49;83.58
84673;BME280;74899;42.256;23.284;2024-02-16T02:12:45;88986.38;;;-4.45;82.65
84673;BME280;74899;42.256;23.284;2024-02-16T02:15:11;88975.25;;;-4.51;83.06
84673;BME280;74899;42.256;23.284;2024-02-16T02:17:37;88977.00;;;-4.51;82.86
84673;BME280;74899;42.256;23.284;2024-02-16T02:20:03;88976.31;;;-4.45;81.79
84673;BME280;74899;42.256;23.284;2024-02-16T02:22:29;88968.34;;;-4.49;81.25
84673;BME280;74899;42.256;23.284;2024-02-16T02:24:54;88975.41;;;-4.44;82.03
84673;BME280;74899;42.256;23.284;2024-02-16T02:27:21;88957.44;;;-4.64;81.87
84673;BME280;74899;42.256;23.284;2024-02-16T02:29:47;88968.56;;;-4.59;81.81
84673;BME280;74899;42.256;23.284;2024-02-16T02:32:13;88972.31;;;-4.86;82.83
84673;BME280;74899;42.256;23.284;2024-02-16T02:34:39;88979.00;;;-4.70;82.73
84673;BME280;74899;42.256;23.284;2024-02-16T02:37:05;88973.41;;;-4.57;82.39
84673;BME280;74899;42.256;23.284;2024-02-16T02:39:31;88970.34;;;-4.67;82.43
84673;BME280;74899;42.256;23.284;2024-02-16T02:41:57;88970.13;;;-4.58;82.30
84673;BME280;74899;42.256;23.284;2024-02-16T02:44:26;88977.34;;;-4.54;81.63
84673;BME280;74899;42.256;23.284;2024-02-16T02:46:51;88971.13;;;-4.67;82.13
84673;BME280;74899;42.256;23.284;2024-02-16T02:49:18;88969.41;;;-4.74;82.26
84673;BME280;74899;42.256;23.284;2024-02-16T02:51:43;88960.56;;;-4.93;82.67
84673;BME280;74899;42.256;23.284;2024-02-16T02:54:09;88976.06;;;-4.82;82.52
84673;BME280;74899;42.256;23.284;2024-02-16T02:56:35;88974.28;;;-5.04;82.79
84673;BME280;74899;42.256;23.284;2024-02-16T02:59:00;88974.53;;;-5.30;84.06
84673;BME280;74899;42.256;23.284;2024-02-16T03:01:26;88981.16;;;-5.29;85.16
84673;BME280;74899;42.256;23.284;2024-02-16T03:03:51;88977.56;;;-5.04;84.39
84673;BME280;74899;42.256;23.284;2024-02-16T03:06:20;88980.19;;;-5.28;85.58
84673;BME280;74899;42.256;23.284;2024-02-16T03:08:46;88989.91;;;-5.17;84.61
84673;BME280;74899;42.256;23.284;2024-02-16T03:11:12;88980.88;;;-5.03;83.70
84673;BME280;74899;42.256;23.284;2024-02-16T03:13:38;88974.91;;;-5.02;83.18
84673;BME280;74899;42.256;23.284;2024-02-16T03:16:03;88987.59;;;-4.95;82.54
84673;BME280;74899;42.256;23.284;2024-02-16T03:18:30;89000.06;;;-5.02;82.18
84673;BME280;74899;42.256;23.284;2024-02-16T03:20:56;88998.66;;;-5.13;82.63
84673;BME280;74899;42.256;23.284;2024-02-16T03:23:22;88996.22;;;-5.29;83.65
84673;BME280;74899;42.256;23.284;2024-02-16T03:25:48;89000.63;;;-5.39;84.07
84673;BME280;74899;42.256;23.284;2024-02-16T03:28:13;89002.69;;;-5.35;83.99
84673;BME280;74899;42.256;23.284;2024-02-16T03:30:40;88995.41;;;-5.21;83.17
84673;BME280;74899;42.256;23.284;2024-02-16T03:33:09;89005.44;;;-5.21;82.94
84673;BME280;74899;42.256;23.284;2024-02-16T03:35:35;89007.91;;;-5.53;84.37
84673;BME280;74899;42.256;23.284;2024-02-16T03:38:02;89001.56;;;-5.32;83.73
84673;BME280;74899;42.256;23.284;2024-02-16T03:40:30;89013.50;;;-5.26;83.13
84673;BME280;74899;42.256;23.284;2024-02-16T03:42:55;89001.03;;;-5.75;85.40
84673;BME280;74899;42.256;23.284;2024-02-16T03:45:22;89005.28;;;-5.84;86.06
84673;BME280;74899;42.256;23.284;2024-02-16T03:47:48;89008.06;;;-5.71;85.99
84673;BME280;74899;42.256;23.284;2024-02-16T03:50:15;89008.03;;;-5.46;84.67
84673;BME280;74899;42.256;23.284;2024-02-16T03:52:42;89002.81;;;-5.36;83.50
84673;BME280;74899;42.256;23.284;2024-02-16T03:55:07;89008.63;;;-5.28;83.34
84673;BME280;74899;42.256;23.284;2024-02-16T03:57:33;89003.59;;;-5.28;83.58
84673;BME280;74899;42.256;23.284;2024-02-16T03:59:59;89015.38;;;-5.36;84.15
84673;BME280;74899;42.256;23.284;2024-02-16T04:02:25;89014.16;;;-5.49;84.36
84673;BME280;74899;42.256;23.284;2024-02-16T04:04:51;89022.34;;;-5.55;86.10
84673;BME280;74899;42.256;23.284;2024-02-16T04:07:17;89019.53;;;-5.60;86.17
84673;BME280;74899;42.256;23.284;2024-02-16T04:09:43;88998.47;;;-5.59;85.32
84673;BME280;74899;42.256;23.284;2024-02-16T04:12:08;89009.91;;;-5.40;84.42
84673;BME280;74899;42.256;23.284;2024-02-16T04:14:36;88994.41;;;-5.60;85.08
84673;BME280;74899;42.256;23.284;2024-02-16T04:17:02;89002.72;;;-5.51;85.75
84673;BME280;74899;42.256;23.284;2024-02-16T04:19:28;89010.88;;;-5.57;85.77
84673;BME280;74899;42.256;23.284;2024-02-16T04:21:54;89009.13;;;-5.49;85.36
84673;BME280;74899;42.256;23.284;2024-02-16T04:24:20;88992.66;;;-5.59;84.67
84673;BME280;74899;42.256;23.284;2024-02-16T04:26:47;89010.44;;;-5.85;85.83
84673;BME280;74899;42.256;23.284;2024-02-16T04:29:13;88999.47;;;-5.84;85.05
84673;BME280;74899;42.256;23.284;2024-02-16T04:31:41;89008.25;;;-5.64;84.26
84673;BME280;74899;42.256;23.284;2024-02-16T04:34:13;89017.91;;;-5.44;83.16
84673;BME280;74899;42.256;23.284;2024-02-16T04:36:39;89009.47;;;-5.52;83.08
84673;BME280;74899;42.256;23.284;2024-02-16T04:39:05;89009.44;;;-5.43;82.60
84673;BME280;74899;42.256;23.284;2024-02-16T04:41:31;89005.66;;;-5.39;82.62
84673;BME280;74899;42.256;23.284;2024-02-16T04:43:57;89005.84;;;-5.41;82.18
84673;BME280;74899;42.256;23.284;2024-02-16T04:46:25;89010.91;;;-5.65;82.91
84673;BME280;74899;42.256;23.284;2024-02-16T04:48:52;89006.97;;;-5.68;83.35
84673;BME280;74899;42.256;23.284;2024-02-16T04:51:18;89008.06;;;-5.54;83.16
84673;BME280;74899;42.256;23.284;2024-02-16T04:53:44;88998.97;;;-5.80;83.42
84673;BME280;74899;42.256;23.284;2024-02-16T04:56:09;89014.50;;;-5.68;83.87
84673;BME280;74899;42.256;23.284;2024-02-16T04:58:35;89005.84;;;-5.49;82.97
84673;BME280;74899;42.256;23.284;2024-02-16T05:01:00;89002.59;;;-5.74;83.19
84673;BME280;74899;42.256;23.284;2024-02-16T05:03:26;89001.56;;;-5.96;83.79
84673;BME280;74899;42.256;23.284;2024-02-16T05:05:51;89004.00;;;-5.88;85.06
84673;BME280;74899;42.256;23.284;2024-02-16T05:08:22;88993.72;;;-6.01;85.38
84673;BME280;74899;42.256;23.284;2024-02-16T05:10:49;89002.34;;;-6.28;87.44
84673;BME280;74899;42.256;23.284;2024-02-16T05:13:14;89008.13;;;-6.28;88.17
84673;BME280;74899;42.256;23.284;2024-02-16T05:15:40;89005.47;;;-6.02;87.27
84673;BME280;74899;42.256;23.284;2024-02-16T05:18:07;89002.34;;;-6.04;86.53
84673;BME280;74899;42.256;23.284;2024-02-16T05:20:33;89008.59;;;-6.00;86.39
84673;BME280;74899;42.256;23.284;2024-02-16T05:23:00;89017.19;;;-5.78;85.02
84673;BME280;74899;42.256;23.284;2024-02-16T05:25:26;89017.19;;;-5.70;84.49
84673;BME280;74899;42.256;23.284;2024-02-16T05:27:52;89013.91;;;-5.70;84.14
84673;BME280;74899;42.256;23.284;2024-02-16T05:30:17;89022.22;;;-5.70;84.51
84673;BME280;74899;42.256;23.284;2024-02-16T05:32:43;89016.06;;;-5.59;83.83
84673;BME280;74899;42.256;23.284;2024-02-16T05:35:09;89014.69;;;-5.78;84.36
84673;BME280;74899;42.256;23.284;2024-02-16T05:37:47;89020.94;;;-5.65;83.53
84673;BME280;74899;42.256;23.284;2024-02-16T05:40:15;89029.75;;;-5.70;83.33
84673;BME280;74899;42.256;23.284;2024-02-16T05:42:53;89026.13;;;-5.83;84.07
84673;BME280;74899;42.256;23.284;2024-02-16T05:45:19;89002.75;;;-5.84;84.37
84673;BME280;74899;42.256;23.284;2024-02-16T05:47:45;89029.25;;;-5.49;83.29
84673;BME280;74899;42.256;23.284;2024-02-16T05:50:12;89037.88;;;-5.67;84.22
84673;BME280;74899;42.256;23.284;2024-02-16T05:52:38;89041.06;;;-5.82;85.79
84673;BME280;74899;42.256;23.284;2024-02-16T05:55:08;89033.00;;;-5.44;83.94
84673;BME280;74899;42.256;23.284;2024-02-16T05:57:35;89022.22;;;-5.70;85.02
84673;BME280;74899;42.256;23.284;2024-02-16T06:00:01;89032.72;;;-5.58;84.64
84673;BME280;74899;42.256;23.284;2024-02-16T06:02:30;89044.91;;;-5.38;83.60
84673;BME280;74899;42.256;23.284;2024-02-16T06:04:55;89032.97;;;-5.28;83.11
84673;BME280;74899;42.256;23.284;2024-02-16T06:07:21;89037.78;;;-5.18;83.49
84673;BME280;74899;42.256;23.284;2024-02-16T06:09:47;89033.88;;;-5.21;83.26
84673;BME280;74899;42.256;23.284;2024-02-16T06:12:12;89035.94;;;-5.33;84.22
84673;BME280;74899;42.256;23.284;2024-02-16T06:14:38;89038.13;;;-5.21;84.34
84673;BME280;74899;42.256;23.284;2024-02-16T06:17:04;89032.28;;;-5.06;84.08
84673;BME280;74899;42.256;23.284;2024-02-16T06:19:30;89037.47;;;-4.68;82.50
84673;BME280;74899;42.256;23.284;2024-02-16T06:21:55;89041.16;;;-4.47;81.03
84673;BME280;74899;42.256;23.284;2024-02-16T06:24:22;89040.31;;;-4.40;81.67
84673;BME280;74899;42.256;23.284;2024-02-16T06:26:48;89034.41;;;-4.55;81.95
84673;BME280;74899;42.256;23.284;2024-02-16T06:29:14;89028.38;;;-4.46;81.33
84673;BME280;74899;42.256;23.284;2024-02-16T06:31:39;89034.78;;;-4.35;81.20
84673;BME280;74899;42.256;23.284;2024-02-16T06:34:05;89040.72;;;-4.28;81.47
84673;BME280;74899;42.256;23.284;2024-02-16T06:36:30;89026.09;;;-4.10;80.33
84673;BME280;74899;42.256;23.284;2024-02-16T06:38:56;89041.09;;;-3.70;79.66
84673;BME280;74899;42.256;23.284;2024-02-16T06:41:21;89004.25;;;-3.86;79.54
84673;BME280;74899;42.256;23.284;2024-02-16T06:43:47;89036.13;;;-3.40;78.26
84673;BME280;74899;42.256;23.284;2024-02-16T06:46:12;89029.53;;;-3.27;77.36
84673;BME280;74899;42.256;23.284;2024-02-16T06:48:38;89046.91;;;-3.32;77.90
84673;BME280;74899;42.256;23.284;2024-02-16T06:51:03;89047.78;;;-3.25;79.42
84673;BME280;74899;42.256;23.284;2024-02-16T06:53:29;89037.22;;;-3.05;78.29
84673;BME280;74899;42.256;23.284;2024-02-16T06:55:54;89044.00;;;-2.76;77.64
84673;BME280;74899;42.256;23.284;2024-02-16T06:58:20;89042.75;;;-2.51;75.89
84673;BME280;74899;42.256;23.284;2024-02-16T07:00:45;89037.47;;;-2.34;75.56
84673;BME280;74899;42.256;23.284;2024-02-16T07:03:12;89041.19;;;-2.15;75.12
84673;BME280;74899;42.256;23.284;2024-02-16T07:05:37;89030.63;;;-2.04;74.54
84673;BME280;74899;42.256;23.284;2024-02-16T07:08:05;88998.72;;;-2.26;75.57
84673;BME280;74899;42.256;23.284;2024-02-16T07:10:33;89031.78;;;-2.07;74.84
84673;BME280;74899;42.256;23.284;2024-02-16T07:12:58;89032.44;;;-2.19;75.24
84673;BME280;74899;42.256;23.284;2024-02-16T07:15:24;88996.41;;;-2.07;75.29
84673;BME280;74899;42.256;23.284;2024-02-16T07:17:51;89021.69;;;-1.64;73.09
84673;BME280;74899;42.256;23.284;2024-02-16T07:20:17;89037.06;;;-1.37;73.27
84673;BME280;74899;42.256;23.284;2024-02-16T07:22:43;89045.19;;;-1.42;75.47
84673;BME280;74899;42.256;23.284;2024-02-16T07:25:11;88994.59;;;-1.42;72.74
84673;BME280;74899;42.256;23.284;2024-02-16T07:27:38;89036.38;;;-0.96;73.08
84673;BME280;74899;42.256;23.284;2024-02-16T07:30:04;88998.09;;;-1.15;71.44
84673;BME280;74899;42.256;23.284;2024-02-16T07:32:29;88999.41;;;-0.90;71.96
84673;BME280;74899;42.256;23.284;2024-02-16T07:34:55;89029.56;;;-0.54;71.68
84673;BME280;74899;42.256;23.284;2024-02-16T07:37:20;88989.41;;;-0.64;71.73
84673;BME280;74899;42.256;23.284;2024-02-16T07:39:46;88992.34;;;-0.60;71.07
84673;BME280;74899;42.256;23.284;2024-02-16T07:42:11;88992.75;;;-0.57;72.18
84673;BME280;74899;42.256;23.284;2024-02-16T07:44:39;88995.47;;;-0.58;71.23
84673;BME280;74899;42.256;23.284;2024-02-16T07:47:04;89039.47;;;-0.59;72.44
84673;BME280;74899;42.256;23.284;2024-02-16T07:49:30;89038.31;;;-0.57;72.60
84673;BME280;74899;42.256;23.284;2024-02-16T07:51:56;88996.91;;;-0.42;72.35
84673;BME280;74899;42.256;23.284;2024-02-16T07:54:23;89010.88;;;0.02;71.12
84673;BME280;74899;42.256;23.284;2024-02-16T07:56:48;89035.09;;;0.37;69.76
84673;BME280;74899;42.256;23.284;2024-02-16T07:59:13;89014.84;;;0.44;70.27
84673;BME280;74899;42.256;23.284;2024-02-16T08:01:39;89030.88;;;0.64;69.39
84673;BME280;74899;42.256;23.284;2024-02-16T08:04:05;89025.75;;;0.84;68.20
84673;BME280;74899;42.256;23.284;2024-02-16T08:06:31;89022.06;;;0.87;68.00
84673;BME280;74899;42.256;23.284;2024-02-16T08:08:56;89034.38;;;0.77;68.88
84673;BME280;74899;42.256;23.284;2024-02-16T08:11:22;89026.16;;;0.75;68.31
84673;BME280;74899;42.256;23.284;2024-02-16T08:13:48;89011.72;;;0.95;68.01
84673;BME280;74899;42.256;23.284;2024-02-16T08:16:13;89029.69;;;0.80;68.67
84673;BME280;74899;42.256;23.284;2024-02-16T08:18:39;89008.97;;;0.90;68.43
84673;BME280;74899;42.256;23.284;2024-02-16T08:21:04;89025.72;;;1.24;68.38
84673;BME280;74899;42.256;23.284;2024-02-16T08:23:30;89023.75;;;1.40;68.38
84673;BME280;74899;42.256;23.284;2024-02-16T08:25:56;89028.81;;;1.46;69.57
84673;BME280;74899;42.256;23.284;2024-02-16T08:28:22;89024.84;;;1.70;68.71
84673;BME280;74899;42.256;23.284;2024-02-16T08:30:48;89013.50;;;1.66;68.66
84673;BME280;74899;42.256;23.284;2024-02-16T08:33:13;89023.66;;;1.66;69.09
84673;BME280;74899;42.256;23.284;2024-02-16T08:35:39;89027.09;;;1.92;68.36
84673;BME280;74899;42.256;23.284;2024-02-16T08:38:05;89019.44;;;1.98;68.41
84673;BME280;74899;42.256;23.284;2024-02-16T08:40:30;89017.75;;;1.86;68.44
84673;BME280;74899;42.256;23.284;2024-02-16T08:42:56;89020.75;;;2.08;68.78
84673;BME280;74899;42.256;23.284;2024-02-16T08:45:21;89029.75;;;2.10;68.67
84673;BME280;74899;42.256;23.284;2024-02-16T08:47:47;89022.84;;;1.79;69.13
84673;BME280;74899;42.256;23.284;2024-02-16T08:50:12;89019.25;;;2.00;68.00
84673;BME280;74899;42.256;23.284;2024-02-16T08:52:38;89008.22;;;2.13;69.08
84673;BME280;74899;42.256;23.284;2024-02-16T08:55:04;89023.59;;;2.31;68.40
84673;BME280;74899;42.256;23.284;2024-02-16T08:57:31;89025.41;;;1.79;69.58
84673;BME280;74899;42.256;23.284;2024-02-16T08:59:57;88998.72;;;1.95;69.66
84673;BME280;74899;42.256;23.284;2024-02-16T09:02:22;89024.22;;;2.58;68.35
84673;BME280;74899;42.256;23.284;2024-02-16T09:04:48;89040.66;;;2.56;67.43
84673;BME280;74899;42.256;23.284;2024-02-16T09:07:13;88995.56;;;2.69;66.30
84673;BME280;74899;42.256;23.284;2024-02-16T09:09:39;89028.56;;;3.08;66.83
84673;BME280;74899;42.256;23.284;2024-02-16T09:12:05;89031.47;;;3.11;65.68
84673;BME280;74899;42.256;23.284;2024-02-16T09:14:30;88991.06;;;3.15;65.41
84673;BME280;74899;42.256;23.284;2024-02-16T09:16:57;89039.56;;;3.45;65.03
84673;BME280;74899;42.256;23.284;2024-02-16T09:19:22;89012.47;;;3.32;64.13
84673;BME280;74899;42.256;23.284;2024-02-16T09:21:48;88995.69;;;3.25;64.51
84673;BME280;74899;42.256;23.284;2024-02-16T09:24:16;88994.28;;;3.47;64.13
84673;BME280;74899;42.256;23.284;2024-02-16T09:26:46;89020.91;;;3.88;63.56
84673;BME280;74899;42.256;23.284;2024-02-16T09:29:15;88989.41;;;3.64;63.00
84673;BME280;74899;42.256;23.284;2024-02-16T09:31:41;88991.19;;;3.63;63.35
84673;BME280;74899;42.256;23.284;2024-02-16T09:34:07;88984.47;;;3.69;63.36
84673;BME280;74899;42.256;23.284;2024-02-16T09:36:32;88981.75;;;3.82;62.65
84673;BME280;74899;42.256;23.284;2024-02-16T09:38:58;88998.97;;;3.87;63.15
84673;BME280;74899;42.256;23.284;2024-02-16T09:41:23;89032.72;;;4.19;62.80
84673;BME280;74899;42.256;23.284;2024-02-16T09:43:50;88992.09;;;3.88;61.80
84673;BME280;74899;42.256;23.284;2024-02-16T09:46:19;88994.97;;;4.09;62.13
84673;BME280;74899;42.256;23.284;2024-02-16T09:48:45;89030.84;;;4.45;62.62
84673;BME280;74899;42.256;23.284;2024-02-16T09:51:13;89029.69;;;4.41;62.63
84673;BME280;74899;42.256;23.284;2024-02-16T09:53:39;88985.50;;;4.28;63.38
84673;BME280;74899;42.256;23.284;2024-02-16T09:56:05;89033.03;;;4.71;62.01
84673;BME280;74899;42.256;23.284;2024-02-16T09:58:34;89023.59;;;4.72;61.80
84673;BME280;74899;42.256;23.284;2024-02-16T10:01:00;88977.75;;;4.35;62.17
84673;BME280;74899;42.256;23.284;2024-02-16T10:03:29;89026.28;;;4.77;61.57
84673;BME280;74899;42.256;23.284;2024-02-16T10:08:32;89022.72;;;4.78;62.44
84673;BME280;74899;42.256;23.284;2024-02-16T10:11:04;88997.88;;;4.43;62.60
84673;BME280;74899;42.256;23.284;2024-02-16T10:13:32;88982.59;;;4.55;62.52
84673;BME280;74899;42.256;23.284;2024-02-16T10:16:08;89024.31;;;5.03;61.54
84673;BME280;74899;42.256;23.284;2024-02-16T10:18:37;89014.31;;;4.89;61.00
84673;BME280;74899;42.256;23.284;2024-02-16T10:21:03;89006.88;;;4.99;60.70
84673;BME280;74899;42.256;23.284;2024-02-16T10:23:29;88972.09;;;4.87;59.89
84673;BME280;74899;42.256;23.284;2024-02-16T10:25:56;88970.78;;;4.96;59.79
84673;BME280;74899;42.256;23.284;2024-02-16T10:28:24;89006.00;;;5.29;60.70
84673;BME280;74899;42.256;23.284;2024-02-16T10:30:59;88984.13;;;4.98;61.00
84673;BME280;74899;42.256;23.284;2024-02-16T10:33:31;88995.25;;;5.27;60.81
84673;BME280;74899;42.256;23.284;2024-02-16T10:35:57;88964.13;;;4.95;58.98
84673;BME280;74899;42.256;23.284;2024-02-16T10:38:25;89005.03;;;5.30;59.10
84673;BME280;74899;42.256;23.284;2024-02-16T10:40:53;88974.56;;;5.17;59.96
84673;BME280;74899;42.256;23.284;2024-02-16T10:43:20;88956.78;;;5.10;58.27
84673;BME280;74899;42.256;23.284;2024-02-16T10:45:46;89006.69;;;5.60;59.40
84673;BME280;74899;42.256;23.284;2024-02-16T10:48:14;88968.66;;;5.52;59.30
84673;BME280;74899;42.256;23.284;2024-02-16T10:50:41;88970.78;;;5.55;58.29
84673;BME280;74899;42.256;23.284;2024-02-16T10:53:17;89010.66;;;5.91;58.87
84673;BME280;74899;42.256;23.284;2024-02-16T10:55:45;88964.41;;;5.69;57.49
84673;BME280;74899;42.256;23.284;2024-02-16T10:58:11;89003.09;;;5.84;57.93
84673;BME280;74899;42.256;23.284;2024-02-16T11:00:53;89001.09;;;5.86;57.98
84673;BME280;74899;42.256;23.284;2024-02-16T11:03:26;88992.66;;;5.74;58.83
84673;BME280;74899;42.256;23.284;2024-02-16T11:05:53;88992.78;;;5.44;59.49
84673;BME280;74899;42.256;23.284;2024-02-16T11:08:23;88960.78;;;5.53;58.83
84673;BME280;74899;42.256;23.284;2024-02-16T11:10:59;88991.94;;;5.90;59.38
84673;BME280;74899;42.256;23.284;2024-02-16T11:13:26;88984.28;;;6.02;58.68
84673;BME280;74899;42.256;23.284;2024-02-16T11:16:08;88985.81;;;6.15;57.45
84673;BME280;74899;42.256;23.284;2024-02-16T11:18:39;88991.03;;;6.20;56.53
84673;BME280;74899;42.256;23.284;2024-02-16T11:21:05;88991.84;;;6.09;58.33
84673;BME280;74899;42.256;23.284;2024-02-16T11:23:34;88994.47;;;6.14;58.17
84673;BME280;74899;42.256;23.284;2024-02-16T11:26:01;88943.91;;;5.93;57.65
84673;BME280;74899;42.256;23.284;2024-02-16T11:28:28;88988.91;;;6.17;57.86
84673;BME280;74899;42.256;23.284;2024-02-16T11:30:54;88990.38;;;6.13;57.60
84673;BME280;74899;42.256;23.284;2024-02-16T11:33:20;88952.22;;;6.11;56.69
84673;BME280;74899;42.256;23.284;2024-02-16T11:35:55;88970.31;;;6.22;55.90
84673;BME280;74899;42.256;23.284;2024-02-16T11:38:21;88952.53;;;6.15;55.32
84673;BME280;74899;42.256;23.284;2024-02-16T11:40:57;88980.31;;;6.52;55.86
84673;BME280;74899;42.256;23.284;2024-02-16T11:43:24;88980.72;;;6.44;55.09
84673;BME280;74899;42.256;23.284;2024-02-16T11:45:50;88995.16;;;6.50;55.32
84673;BME280;74899;42.256;23.284;2024-02-16T11:48:23;88993.78;;;6.59;55.50
84673;BME280;74899;42.256;23.284;2024-02-16T11:50:57;88989.06;;;6.68;55.86
84673;BME280;74899;42.256;23.284;2024-02-16T11:53:23;88989.28;;;6.66;54.91
84673;BME280;74899;42.256;23.284;2024-02-16T11:55:49;88982.97;;;6.57;55.69
84673;BME280;74899;42.256;23.284;2024-02-16T11:58:19;88980.50;;;6.62;55.86
84673;BME280;74899;42.256;23.284;2024-02-16T12:00:46;88984.81;;;6.73;54.96
84673;BME280;74899;42.256;23.284;2024-02-16T12:03:21;88992.81;;;6.94;54.63
84673;BME280;74899;42.256;23.284;2024-02-16T12:06:01;88983.25;;;6.89;54.02
84673;BME280;74899;42.256;23.284;2024-02-16T12:08:34;88978.03;;;6.84;54.88
84673;BME280;74899;42.256;23.284;2024-02-16T12:11:01;88982.47;;;6.89;52.75
84673;BME280;74899;42.256;23.284;2024-02-16T12:13:28;88973.25;;;6.88;54.10
84673;BME280;74899;42.256;23.284;2024-02-16T12:15:53;88973.47;;;7.03;53.89
84673;BME280;74899;42.256;23.284;2024-02-16T12:18:26;88968.97;;;7.10;54.78
84673;BME280;74899;42.256;23.284;2024-02-16T12:21:02;88935.09;;;6.74;52.71
84673;BME280;74899;42.256;23.284;2024-02-16T12:23:29;88963.94;;;7.15;52.89
84673;BME280;74899;42.256;23.284;2024-02-16T12:26:00;88966.56;;;7.03;53.37
84673;BME280;74899;42.256;23.284;2024-02-16T12:28:28;88957.63;;;7.06;54.66
84673;BME280;74899;42.256;23.284;2024-02-16T12:30:58;88968.44;;;7.08;53.75
84673;BME280;74899;42.256;23.284;2024-02-16T12:33:24;88942.88;;;6.96;55.09
84673;BME280;74899;42.256;23.284;2024-02-16T12:35:50;88954.66;;;6.64;54.47
84673;BME280;74899;42.256;23.284;2024-02-16T12:38:16;88916.03;;;6.82;56.05
84673;BME280;74899;42.256;23.284;2024-02-16T12:40:45;88920.28;;;6.93;53.96
84673;BME280;74899;42.256;23.284;2024-02-16T12:43:10;88924.31;;;6.89;55.60
84673;BME280;74899;42.256;23.284;2024-02-16T12:45:37;88946.75;;;6.82;54.77
84673;BME280;74899;42.256;23.284;2024-02-16T12:48:02;88955.38;;;7.10;55.61
84673;BME280;74899;42.256;23.284;2024-02-16T12:50:30;88921.59;;;6.96;55.34
84673;BME280;74899;42.256;23.284;2024-02-16T12:52:55;88910.94;;;6.87;53.61
84673;BME280;74899;42.256;23.284;2024-02-16T12:55:25;88897.66;;;6.90;53.91